sensor_id;sensor_type;location;lat;lon;timestamp;P1;durP1;ratioP1;P2;durP2;ratioP2
57899;SDS011;60605;53.716;19.940;2022-09-12T00:04:41;11.60;;;4.90;;
57899;SDS011;60605;53.716;19.940;2022-09-12T00:09:42;7.40;;;4.50;;
57899;SDS011;60605;53.716;19.940;2022-09-12T00:14:44;7.40;;;4.40;;
57899;SDS011;60605;53.716;19.940;2022-09-12T00:19:46;7.30;;;4.10;;
57899;SDS011;60605;53.716;19.940;2022-09-12T00:24:48;7.40;;;4.40;;
57899;SDS011;60605;53.716;19.940;2022-09-12T00:29:50;6.40;;;4.50;;
57899;SDS011;60605;53.716;19.940;2022-09-12T00:34:52;8.00;;;4.40;;
57899;SDS011;60605;53.716;19.940;2022-09-12T00:39:54;8.00;;;4.30;;
57899;SDS011;60605;53.716;19.940;2022-09-12T00:44:56;10.50;;;4.00;;
57899;SDS011;60605;53.716;19.940;2022-09-12T00:50:19;6.10;;;4.20;;
57899;SDS011;60605;53.716;19.940;2022-09-12T01:00:23;9.40;;;4.30;;
57899;SDS011;60605;53.716;19.940;2022-09-12T01:05:28;7.60;;;3.90;;
57899;SDS011;60605;53.716;19.940;2022-09-12T01:10:33;8.50;;;4.50;;
57899;SDS011;60605;53.716;19.940;2022-09-12T01:15:38;5.50;;;4.20;;
57899;SDS011;60605;53.716;19.940;2022-09-12T01:52:25;5.20;;;3.40;;
57899;SDS011;60605;53.716;19.940;2022-09-12T01:57:31;5.20;;;3.90;;
57899;SDS011;60605;53.716;19.940;2022-09-12T02:02:48;7.20;;;3.60;;
57899;SDS011;60605;53.716;19.940;2022-09-12T02:07:57;5.60;;;3.80;;
57899;SDS011;60605;53.716;19.940;2022-09-12T02:13:41;5.80;;;3.50;;
57899;SDS011;60605;53.716;19.940;2022-09-12T02:18:45;5.10;;;3.70;;
57899;SDS011;60605;53.716;19.940;2022-09-12T02:23:55;5.30;;;3.70;;
57899;SDS011;60605;53.716;19.940;2022-09-12T02:28:59;4.60;;;3.60;;
57899;SDS011;60605;53.716;19.940;2022-09-12T02:34:09;6.20;;;3.80;;
57899;SDS011;60605;53.716;19.940;2022-09-12T02:39:53;4.60;;;3.70;;
57899;SDS011;60605;53.716;19.940;2022-09-12T02:44:57;5.40;;;4.00;;
57899;SDS011;60605;53.716;19.940;2022-09-12T02:49:59;6.70;;;4.10;;
57899;SDS011;60605;53.716;19.940;2022-09-12T02:55:04;8.10;;;4.20;;
57899;SDS011;60605;53.716;19.940;2022-09-12T03:00:07;6.10;;;4.10;;
57899;SDS011;60605;53.716;19.940;2022-09-12T03:05:23;5.50;;;4.00;;
57899;SDS011;60605;53.716;19.940;2022-09-12T03:26:36;4.70;;;3.50;;
57899;SDS011;60605;53.716;19.940;2022-09-12T03:31:47;5.70;;;3.50;;
57899;SDS011;60605;53.716;19.940;2022-09-12T03:36:50;8.30;;;4.00;;
57899;SDS011;60605;53.716;19.940;2022-09-12T03:41:55;8.30;;;3.70;;
57899;SDS011;60605;53.716;19.940;2022-09-12T03:46:58;6.40;;;4.40;;
57899;SDS011;60605;53.716;19.940;2022-09-12T03:52:00;6.10;;;3.50;;
57899;SDS011;60605;53.716;19.940;2022-09-12T03:57:02;5.30;;;3.80;;
57899;SDS011;60605;53.716;19.940;2022-09-12T04:02:05;7.10;;;3.60;;
57899;SDS011;60605;53.716;19.940;2022-09-12T04:07:07;7.20;;;3.20;;
57899;SDS011;60605;53.716;19.940;2022-09-12T04:12:10;5.80;;;3.40;;
57899;SDS011;60605;53.716;19.940;2022-09-12T04:17:14;5.80;;;3.30;;
57899;SDS011;60605;53.716;19.940;2022-09-12T04:22:16;6.90;;;3.80;;
57899;SDS011;60605;53.716;19.940;2022-09-12T04:27:18;6.20;;;3.50;;
57899;SDS011;60605;53.716;19.940;2022-09-12T04:32:20;8.30;;;3.90;;
57899;SDS011;60605;53.716;19.940;2022-09-12T04:37:22;6.60;;;4.10;;
57899;SDS011;60605;53.716;19.940;2022-09-12T04:42:25;8.10;;;3.90;;
57899;SDS011;60605;53.716;19.940;2022-09-12T04:47:27;5.90;;;3.70;;
57899;SDS011;60605;53.716;19.940;2022-09-12T04:52:29;5.50;;;3.80;;
57899;SDS011;60605;53.716;19.940;2022-09-12T04:57:31;5.00;;;3.70;;
57899;SDS011;60605;53.716;19.940;2022-09-12T05:02:33;5.60;;;3.70;;
57899;SDS011;60605;53.716;19.940;2022-09-12T05:07:35;7.00;;;3.30;;
57899;SDS011;60605;53.716;19.940;2022-09-12T05:12:37;6.70;;;3.40;;
57899;SDS011;60605;53.716;19.940;2022-09-12T05:17:39;3.90;;;3.40;;
57899;SDS011;60605;53.716;19.940;2022-09-12T05:22:41;5.50;;;3.00;;
57899;SDS011;60605;53.716;19.940;2022-09-12T05:27:43;5.00;;;3.30;;
57899;SDS011;60605;53.716;19.940;2022-09-12T05:32:51;7.50;;;3.20;;
57899;SDS011;60605;53.716;19.940;2022-09-12T05:37:52;6.00;;;3.10;;
57899;SDS011;60605;53.716;19.940;2022-09-12T05:42:55;3.90;;;3.20;;
57899;SDS011;60605;53.716;19.940;2022-09-12T05:47:58;4.10;;;3.20;;
57899;SDS011;60605;53.716;19.940;2022-09-12T05:53:00;5.00;;;3.10;;
57899;SDS011;60605;53.716;19.940;2022-09-12T05:58:02;4.60;;;2.80;;
57899;SDS011;60605;53.716;19.940;2022-09-12T06:03:04;6.90;;;3.20;;
57899;SDS011;60605;53.716;19.940;2022-09-12T06:08:05;9.00;;;2.90;;
57899;SDS011;60605;53.716;19.940;2022-09-12T06:13:07;4.30;;;2.90;;
57899;SDS011;60605;53.716;19.940;2022-09-12T06:18:09;4.00;;;2.70;;
57899;SDS011;60605;53.716;19.940;2022-09-12T06:23:11;5.30;;;2.70;;
57899;SDS011;60605;53.716;19.940;2022-09-12T06:28:13;3.00;;;2.40;;
57899;SDS011;60605;53.716;19.940;2022-09-12T06:33:15;7.50;;;2.90;;
57899;SDS011;60605;53.716;19.940;2022-09-12T06:38:18;2.80;;;2.50;;
57899;SDS011;60605;53.716;19.940;2022-09-12T06:43:20;4.10;;;2.30;;
57899;SDS011;60605;53.716;19.940;2022-09-12T06:48:22;3.50;;;2.30;;
57899;SDS011;60605;53.716;19.940;2022-09-12T06:53:25;3.50;;;2.50;;
57899;SDS011;60605;53.716;19.940;2022-09-12T06:58:28;2.80;;;2.30;;
57899;SDS011;60605;53.716;19.940;2022-09-12T07:03:30;4.50;;;2.60;;
57899;SDS011;60605;53.716;19.940;2022-09-12T07:13:38;2.50;;;2.10;;
57899;SDS011;60605;53.716;19.940;2022-09-12T07:18:41;2.60;;;1.90;;
57899;SDS011;60605;53.716;19.940;2022-09-12T07:23:44;3.30;;;2.60;;
57899;SDS011;60605;53.716;19.940;2022-09-12T07:28:51;4.50;;;2.20;;
57899;SDS011;60605;53.716;19.940;2022-09-12T07:34:13;3.00;;;2.00;;
57899;SDS011;60605;53.716;19.940;2022-09-12T07:39:17;3.50;;;2.30;;
57899;SDS011;60605;53.716;19.940;2022-09-12T07:44:20;2.70;;;2.30;;
57899;SDS011;60605;53.716;19.940;2022-09-12T07:49:23;2.80;;;2.20;;
57899;SDS011;60605;53.716;19.940;2022-09-12T07:54:25;2.80;;;2.20;;
57899;SDS011;60605;53.716;19.940;2022-09-12T07:59:27;5.50;;;2.10;;
57899;SDS011;60605;53.716;19.940;2022-09-12T08:04:48;4.10;;;2.50;;
57899;SDS011;60605;53.716;19.940;2022-09-12T08:14:54;2.20;;;2.10;;
57899;SDS011;60605;53.716;19.940;2022-09-12T08:19:55;2.30;;;2.00;;
57899;SDS011;60605;53.716;19.940;2022-09-12T08:24:57;3.50;;;2.20;;
57899;SDS011;60605;53.716;19.940;2022-09-12T08:29:59;4.50;;;2.60;;
57899;SDS011;60605;53.716;19.940;2022-09-12T08:35:01;4.90;;;2.00;;
57899;SDS011;60605;53.716;19.940;2022-09-12T08:40:04;3.50;;;2.00;;
57899;SDS011;60605;53.716;19.940;2022-09-12T08:50:13;2.70;;;2.20;;
57899;SDS011;60605;53.716;19.940;2022-09-12T09:00:34;3.20;;;2.00;;
57899;SDS011;60605;53.716;19.940;2022-09-12T09:16:29;3.20;;;2.50;;
57899;SDS011;60605;53.716;19.940;2022-09-12T09:31:48;3.10;;;1.80;;
57899;SDS011;60605;53.716;19.940;2022-09-12T09:42:36;3.90;;;2.00;;
57899;SDS011;60605;53.716;19.940;2022-09-12T09:47:45;2.20;;;1.90;;
57899;SDS011;60605;53.716;19.940;2022-09-12T09:52:53;2.10;;;1.90;;
57899;SDS011;60605;53.716;19.940;2022-09-12T09:57:59;1.80;;;1.70;;
57899;SDS011;60605;53.716;19.940;2022-09-12T10:03:05;2.90;;;2.00;;
57899;SDS011;60605;53.716;19.940;2022-09-12T10:08:39;3.70;;;2.00;;
57899;SDS011;60605;53.716;19.940;2022-09-12T10:18:58;2.10;;;1.90;;
57899;SDS011;60605;53.716;19.940;2022-09-12T10:24:09;3.50;;;2.10;;
57899;SDS011;60605;53.716;19.940;2022-09-12T10:29:21;3.00;;;2.00;;
57899;SDS011;60605;53.716;19.940;2022-09-12T10:39:36;3.50;;;2.00;;
57899;SDS011;60605;53.716;19.940;2022-09-12T10:44:39;3.10;;;1.80;;
57899;SDS011;60605;53.716;19.940;2022-09-12T10:49:56;3.30;;;2.00;;
57899;SDS011;60605;53.716;19.940;2022-09-12T10:55:31;2.40;;;1.90;;
57899;SDS011;60605;53.716;19.940;2022-09-12T11:00:37;3.70;;;2.00;;
57899;SDS011;60605;53.716;19.940;2022-09-12T11:21:18;5.60;;;2.20;;
57899;SDS011;60605;53.716;19.940;2022-09-12T11:47:57;2.90;;;1.90;;
57899;SDS011;60605;53.716;19.940;2022-09-12T11:53:14;3.00;;;2.00;;
57899;SDS011;60605;53.716;19.940;2022-09-12T11:58:21;2.40;;;1.70;;
57899;SDS011;60605;53.716;19.940;2022-09-12T12:03:30;2.10;;;1.80;;
57899;SDS011;60605;53.716;19.940;2022-09-12T12:08:39;4.20;;;1.60;;
57899;SDS011;60605;53.716;19.940;2022-09-12T12:13:49;3.00;;;2.00;;
57899;SDS011;60605;53.716;19.940;2022-09-12T12:34:41;1.90;;;1.60;;
57899;SDS011;60605;53.716;19.940;2022-09-12T12:44:51;1.60;;;1.50;;
57899;SDS011;60605;53.716;19.940;2022-09-12T12:49:58;3.80;;;1.70;;
57899;SDS011;60605;53.716;19.940;2022-09-12T12:55:02;3.90;;;1.80;;
57899;SDS011;60605;53.716;19.940;2022-09-12T13:00:21;2.30;;;1.70;;
57899;SDS011;60605;53.716;19.940;2022-09-12T13:05:29;4.40;;;2.30;;
57899;SDS011;60605;53.716;19.940;2022-09-12T13:10:51;2.40;;;2.10;;
57899;SDS011;60605;53.716;19.940;2022-09-12T13:15:58;2.60;;;2.10;;
57899;SDS011;60605;53.716;19.940;2022-09-12T13:21:16;6.90;;;3.00;;
57899;SDS011;60605;53.716;19.940;2022-09-12T13:26:23;1.90;;;1.70;;
57899;SDS011;60605;53.716;19.940;2022-09-12T13:31:28;2.00;;;1.90;;
57899;SDS011;60605;53.716;19.940;2022-09-12T13:36:35;4.20;;;1.80;;
57899;SDS011;60605;53.716;19.940;2022-09-12T13:42:02;3.20;;;1.80;;
57899;SDS011;60605;53.716;19.940;2022-09-12T13:47:51;7.30;;;1.90;;
57899;SDS011;60605;53.716;19.940;2022-09-12T13:53:03;2.60;;;1.90;;
57899;SDS011;60605;53.716;19.940;2022-09-12T13:58:16;3.30;;;2.90;;
57899;SDS011;60605;53.716;19.940;2022-09-12T14:03:25;3.00;;;2.20;;
57899;SDS011;60605;53.716;19.940;2022-09-12T14:08:46;1.90;;;1.80;;
57899;SDS011;60605;53.716;19.940;2022-09-12T14:13:50;2.30;;;1.90;;
57899;SDS011;60605;53.716;19.940;2022-09-12T14:18:53;3.00;;;2.00;;
57899;SDS011;60605;53.716;19.940;2022-09-12T14:23:55;2.60;;;1.90;;
57899;SDS011;60605;53.716;19.940;2022-09-12T14:28:58;2.10;;;1.90;;
57899;SDS011;60605;53.716;19.940;2022-09-12T14:44:23;3.90;;;1.90;;
57899;SDS011;60605;53.716;19.940;2022-09-12T14:59:39;3.10;;;2.40;;
57899;SDS011;60605;53.716;19.940;2022-09-12T15:04:43;6.40;;;3.70;;
57899;SDS011;60605;53.716;19.940;2022-09-12T15:09:58;6.40;;;4.60;;
57899;SDS011;60605;53.716;19.940;2022-09-12T15:15:12;6.20;;;4.90;;
57899;SDS011;60605;53.716;19.940;2022-09-12T15:20:15;3.40;;;2.50;;
57899;SDS011;60605;53.716;19.940;2022-09-12T15:25:18;6.40;;;3.40;;
57899;SDS011;60605;53.716;19.940;2022-09-12T15:30:20;3.80;;;2.20;;
57899;SDS011;60605;53.716;19.940;2022-09-12T15:35:23;1.90;;;1.60;;
57899;SDS011;60605;53.716;19.940;2022-09-12T15:40:34;2.10;;;1.80;;
57899;SDS011;60605;53.716;19.940;2022-09-12T15:45:36;2.30;;;1.60;;
57899;SDS011;60605;53.716;19.940;2022-09-12T15:50:40;2.50;;;2.10;;
57899;SDS011;60605;53.716;19.940;2022-09-12T15:55:42;2.20;;;2.10;;
57899;SDS011;60605;53.716;19.940;2022-09-12T16:05:48;3.30;;;2.30;;
57899;SDS011;60605;53.716;19.940;2022-09-12T16:10:55;3.90;;;3.10;;
57899;SDS011;60605;53.716;19.940;2022-09-12T16:16:00;3.50;;;2.30;;
57899;SDS011;60605;53.716;19.940;2022-09-12T16:21:02;3.50;;;2.50;;
57899;SDS011;60605;53.716;19.940;2022-09-12T16:26:05;5.50;;;4.40;;
57899;SDS011;60605;53.716;19.940;2022-09-12T16:31:09;4.90;;;4.40;;
57899;SDS011;60605;53.716;19.940;2022-09-12T16:36:14;3.90;;;2.90;;
57899;SDS011;60605;53.716;19.940;2022-09-12T16:41:19;3.20;;;2.10;;
57899;SDS011;60605;53.716;19.940;2022-09-12T16:46:25;5.20;;;2.20;;
57899;SDS011;60605;53.716;19.940;2022-09-12T16:51:30;2.80;;;2.10;;
57899;SDS011;60605;53.716;19.940;2022-09-12T16:56:34;3.00;;;1.90;;
57899;SDS011;60605;53.716;19.940;2022-09-12T17:01:36;2.00;;;1.90;;
57899;SDS011;60605;53.716;19.940;2022-09-12T17:06:39;3.90;;;2.20;;
57899;SDS011;60605;53.716;19.940;2022-09-12T17:11:42;5.30;;;2.60;;
57899;SDS011;60605;53.716;19.940;2022-09-12T17:16:45;5.10;;;3.00;;
57899;SDS011;60605;53.716;19.940;2022-09-12T17:21:52;4.60;;;2.80;;
57899;SDS011;60605;53.716;19.940;2022-09-12T17:26:55;5.40;;;3.30;;
57899;SDS011;60605;53.716;19.940;2022-09-12T17:31:57;6.30;;;4.70;;
57899;SDS011;60605;53.716;19.940;2022-09-12T17:37:00;5.60;;;4.80;;
57899;SDS011;60605;53.716;19.940;2022-09-12T17:42:03;9.40;;;4.80;;
57899;SDS011;60605;53.716;19.940;2022-09-12T17:47:06;15.60;;;12.90;;
57899;SDS011;60605;53.716;19.940;2022-09-12T17:52:08;19.40;;;15.20;;
57899;SDS011;60605;53.716;19.940;2022-09-12T17:57:11;9.30;;;8.20;;
57899;SDS011;60605;53.716;19.940;2022-09-12T18:02:15;7.20;;;5.50;;
57899;SDS011;60605;53.716;19.940;2022-09-12T18:07:19;5.00;;;4.30;;
57899;SDS011;60605;53.716;19.940;2022-09-12T18:12:23;15.60;;;10.30;;
57899;SDS011;60605;53.716;19.940;2022-09-12T18:17:30;28.50;;;20.60;;
57899;SDS011;60605;53.716;19.940;2022-09-12T18:22:34;11.10;;;8.40;;
57899;SDS011;60605;53.716;19.940;2022-09-12T18:27:36;6.70;;;4.80;;
57899;SDS011;60605;53.716;19.940;2022-09-12T18:32:38;15.50;;;9.40;;
57899;SDS011;60605;53.716;19.940;2022-09-12T18:37:42;25.50;;;14.50;;
57899;SDS011;60605;53.716;19.940;2022-09-12T18:42:47;37.80;;;23.10;;
57899;SDS011;60605;53.716;19.940;2022-09-12T18:47:58;53.30;;;24.70;;
57899;SDS011;60605;53.716;19.940;2022-09-12T18:53:01;51.30;;;25.70;;
57899;SDS011;60605;53.716;19.940;2022-09-12T18:58:03;49.20;;;21.90;;
57899;SDS011;60605;53.716;19.940;2022-09-12T19:03:07;10.30;;;7.50;;
57899;SDS011;60605;53.716;19.940;2022-09-12T19:13:12;15.90;;;9.00;;
57899;SDS011;60605;53.716;19.940;2022-09-12T19:18:17;16.20;;;8.30;;
57899;SDS011;60605;53.716;19.940;2022-09-12T19:23:20;32.80;;;15.70;;
57899;SDS011;60605;53.716;19.940;2022-09-12T19:28:26;32.80;;;17.20;;
57899;SDS011;60605;53.716;19.940;2022-09-12T19:33:28;22.40;;;12.20;;
57899;SDS011;60605;53.716;19.940;2022-09-12T19:38:31;31.20;;;15.50;;
57899;SDS011;60605;53.716;19.940;2022-09-12T19:43:33;54.50;;;24.20;;
57899;SDS011;60605;53.716;19.940;2022-09-12T19:48:35;27.70;;;13.70;;
57899;SDS011;60605;53.716;19.940;2022-09-12T19:53:37;23.20;;;10.40;;
57899;SDS011;60605;53.716;19.940;2022-09-12T19:58:41;14.80;;;6.60;;
57899;SDS011;60605;53.716;19.940;2022-09-12T20:03:46;33.30;;;18.90;;
57899;SDS011;60605;53.716;19.940;2022-09-12T20:08:49;49.90;;;28.50;;
57899;SDS011;60605;53.716;19.940;2022-09-12T20:13:52;38.30;;;24.30;;
57899;SDS011;60605;53.716;19.940;2022-09-12T20:19:02;46.30;;;20.40;;
57899;SDS011;60605;53.716;19.940;2022-09-12T20:24:10;64.50;;;25.20;;
57899;SDS011;60605;53.716;19.940;2022-09-12T20:29:14;69.00;;;28.50;;
57899;SDS011;60605;53.716;19.940;2022-09-12T20:34:19;107.00;;;35.10;;
57899;SDS011;60605;53.716;19.940;2022-09-12T20:39:22;68.70;;;30.80;;
57899;SDS011;60605;53.716;19.940;2022-09-12T20:44:24;75.30;;;31.10;;
57899;SDS011;60605;53.716;19.940;2022-09-12T20:49:26;45.90;;;23.70;;
57899;SDS011;60605;53.716;19.940;2022-09-12T20:54:29;41.50;;;23.30;;
57899;SDS011;60605;53.716;19.940;2022-09-12T20:59:32;39.40;;;22.20;;
57899;SDS011;60605;53.716;19.940;2022-09-12T21:04:35;100.00;;;39.60;;
57899;SDS011;60605;53.716;19.940;2022-09-12T21:09:37;63.80;;;30.10;;
57899;SDS011;60605;53.716;19.940;2022-09-12T21:14:40;55.00;;;26.50;;
57899;SDS011;60605;53.716;19.940;2022-09-12T21:19:41;47.70;;;25.10;;
57899;SDS011;60605;53.716;19.940;2022-09-12T21:24:43;58.60;;;30.00;;
57899;SDS011;60605;53.716;19.940;2022-09-12T21:29:45;38.70;;;20.00;;
57899;SDS011;60605;53.716;19.940;2022-09-12T21:34:47;22.50;;;13.60;;
57899;SDS011;60605;53.716;19.940;2022-09-12T21:39:49;23.20;;;14.90;;
57899;SDS011;60605;53.716;19.940;2022-09-12T21:44:51;33.40;;;16.30;;
57899;SDS011;60605;53.716;19.940;2022-09-12T21:49:53;35.30;;;16.50;;
57899;SDS011;60605;53.716;19.940;2022-09-12T21:54:55;45.50;;;20.40;;
57899;SDS011;60605;53.716;19.940;2022-09-12T21:59:57;39.60;;;19.10;;
57899;SDS011;60605;53.716;19.940;2022-09-12T22:05:00;29.00;;;15.60;;
57899;SDS011;60605;53.716;19.940;2022-09-12T22:10:02;53.10;;;19.70;;
57899;SDS011;60605;53.716;19.940;2022-09-12T22:15:05;55.20;;;27.20;;
57899;SDS011;60605;53.716;19.940;2022-09-12T22:20:28;47.00;;;25.70;;
57899;SDS011;60605;53.716;19.940;2022-09-12T22:25:30;47.70;;;24.70;;
57899;SDS011;60605;53.716;19.940;2022-09-12T22:30:32;37.60;;;21.10;;
57899;SDS011;60605;53.716;19.940;2022-09-12T22:35:34;50.10;;;26.80;;
57899;SDS011;60605;53.716;19.940;2022-09-12T22:40:36;61.90;;;30.70;;
57899;SDS011;60605;53.716;19.940;2022-09-12T22:45:41;133.90;;;43.90;;
57899;SDS011;60605;53.716;19.940;2022-09-12T22:50:43;60.90;;;28.60;;
57899;SDS011;60605;53.716;19.940;2022-09-12T22:55:46;65.90;;;29.00;;
57899;SDS011;60605;53.716;19.940;2022-09-12T23:00:48;53.90;;;24.40;;
57899;SDS011;60605;53.716;19.940;2022-09-12T23:05:52;46.60;;;22.20;;
57899;SDS011;60605;53.716;19.940;2022-09-12T23:11:01;40.80;;;19.30;;
57899;SDS011;60605;53.716;19.940;2022-09-12T23:16:13;44.40;;;20.60;;
57899;SDS011;60605;53.716;19.940;2022-09-12T23:21:25;50.80;;;22.70;;
57899;SDS011;60605;53.716;19.940;2022-09-12T23:26:28;46.30;;;23.40;;
57899;SDS011;60605;53.716;19.940;2022-09-12T23:31:30;39.00;;;20.70;;
57899;SDS011;60605;53.716;19.940;2022-09-12T23:36:33;50.10;;;20.80;;
57899;SDS011;60605;53.716;19.940;2022-09-12T23:41:35;57.50;;;23.00;;
57899;SDS011;60605;53.716;19.940;2022-09-12T23:46:39;95.10;;;26.40;;
57899;SDS011;60605;53.716;19.940;2022-09-12T23:51:40;59.50;;;24.00;;
57899;SDS011;60605;53.716;19.940;2022-09-12T23:56:42;49.10;;;22.90;;
